Time;durP1;ratioP1;P1;durP2;ratioP2;P2;SDS_P1;SDS_P2;PMS_P1;PMS_P2;Temp;Humidity;BMP_temperature;BMP_pressure;BME280_temperature;BME280_humidity;BME280_pressure;Samples;Min_cycle;Max_cycle;Signal;HPM_P1;HPM_P2
2021/10/11 00:00:20;;;;;;;8.85;3.20;;;;;;;;;;5148320;27;20477;-73
2021/10/11 00:02:46;;;;;;;7.40;3.05;;;;;;;;;;5149350;27;20046;-73
2021/10/11 00:05:12;;;;;;;4.32;2.63;;;;;;;;;;5151177;27;20076;-73
2021/10/11 00:07:40;;;;;;;7.57;3.08;;;;;;;;;;5152428;27;20039;-73
2021/10/11 00:10:07;;;;;;;6.63;3.28;;;;;;;;;;5152537;27;20047;-73
2021/10/11 00:12:33;;;;;;;6.85;3.92;;;;;;;;;;5150506;27;20073;-73
2021/10/11 00:14:59;;;;;;;5.80;3.03;;;;;;;;;;5152698;27;20015;-73
2021/10/11 00:17:25;;;;;;;5.07;3.08;;;;;;;;;;5151268;27;20465;-73
2021/10/11 00:19:52;;;;;;;7.65;3.15;;;;;;;;;;5152472;27;20071;-73
2021/10/11 00:22:22;;;;;;;5.90;2.92;;;;;;;;;;5150705;27;20033;-73
2021/10/11 00:24:48;;;;;;;6.35;3.25;;;;;;;;;;5152677;27;20029;-73
2021/10/11 00:27:14;;;;;;;8.43;3.15;;;;;;;;;;5151958;27;20105;-73
2021/10/11 00:29:41;;;;;;;8.52;3.13;;;;;;;;;;5152385;27;20044;-73
2021/10/11 00:32:08;;;;;;;7.60;3.05;;;;;;;;;;5152187;27;20026;-73
2021/10/11 00:34:34;;;;;;;8.40;3.05;;;;;;;;;;5152146;27;20026;-73
2021/10/11 00:37:01;;;;;;;5.75;2.92;;;;;;;;;;5150584;27;20323;-73
2021/10/11 00:39:27;;;;;;;6.28;3.30;;;;;;;;;;5150194;27;20481;-73
2021/10/11 00:41:53;;;;;;;11.30;3.38;;;;;;;;;;5152212;27;20423;-73
2021/10/11 00:44:19;;;;;;;6.78;3.15;;;;;;;;;;5152305;27;20040;-73
2021/10/11 00:46:45;;;;;;;6.15;2.92;;;;;;;;;;5151659;27;20015;-73
2021/10/11 00:49:12;;;;;;;5.22;3.10;;;;;;;;;;5151674;27;20030;-73
2021/10/11 00:51:38;;;;;;;4.70;3.08;;;;;;;;;;5150359;27;20019;-73
2021/10/11 00:54:04;;;;;;;6.45;2.72;;;;;;;;;;5151599;27;20434;-73
2021/10/11 00:56:31;;;;;;;9.13;3.45;;;;;;;;;;5151298;27;20033;-73
2021/10/11 00:58:57;;;;;;;10.32;3.50;;;;;;;;;;5151821;27;20106;-73
2021/10/11 01:01:23;;;;;;;5.68;3.10;;;;;;;;;;5151665;27;20037;-73
2021/10/11 01:03:50;;;;;;;7.90;3.03;;;;;;;;;;5150021;27;20063;-73
2021/10/11 01:06:16;;;;;;;5.15;2.83;;;;;;;;;;5151252;27;20030;-73
2021/10/11 01:08:42;;;;;;;7.57;3.13;;;;;;;;;;5151285;27;20032;-73
2021/10/11 01:11:09;;;;;;;5.70;2.80;;;;;;;;;;5151190;27;20416;-73
2021/10/11 01:13:35;;;;;;;5.35;3.10;;;;;;;;;;5151359;27;20031;-73
2021/10/11 01:16:01;;;;;;;8.52;3.38;;;;;;;;;;5150312;27;20201;-72
2021/10/11 01:18:27;;;;;;;5.60;3.00;;;;;;;;;;5149745;27;20042;-72
2021/10/11 01:20:54;;;;;;;6.05;3.08;;;;;;;;;;5151090;27;20022;-73
2021/10/11 01:23:25;;;;;;;8.32;2.90;;;;;;;;;;5149709;27;20023;-73
2021/10/11 01:25:51;;;;;;;11.00;3.20;;;;;;;;;;5149185;27;20378;-72
2021/10/11 01:28:17;;;;;;;6.45;3.40;;;;;;;;;;5150957;27;20035;-73
2021/10/11 01:30:43;;;;;;;8.38;2.67;;;;;;;;;;5151344;27;20019;-73
2021/10/11 01:33:09;;;;;;;10.80;3.03;;;;;;;;;;5151043;27;20034;-73
2021/10/11 01:35:36;;;;;;;8.32;3.25;;;;;;;;;;5149415;27;20075;-73
2021/10/11 01:38:02;;;;;;;6.32;2.58;;;;;;;;;;5150757;27;20101;-73
2021/10/11 01:40:28;;;;;;;13.07;2.83;;;;;;;;;;5150807;27;20172;-72
2021/10/11 01:42:54;;;;;;;9.18;3.75;;;;;;;;;;5149290;27;20023;-73
2021/10/11 01:45:21;;;;;;;6.53;2.40;;;;;;;;;;5150612;27;20023;-73
2021/10/11 01:47:47;;;;;;;8.18;3.05;;;;;;;;;;5150124;27;20046;-73
2021/10/11 01:50:13;;;;;;;9.68;3.00;;;;;;;;;;5150806;27;20408;-73
2021/10/11 01:52:40;;;;;;;6.97;2.70;;;;;;;;;;5150591;27;20015;-73
2021/10/11 01:55:06;;;;;;;8.38;3.03;;;;;;;;;;5149254;27;20536;-73
2021/10/11 01:57:33;;;;;;;6.18;3.00;;;;;;;;;;5150038;27;20046;-73
2021/10/11 01:59:59;;;;;;;6.15;3.22;;;;;;;;;;5150869;27;20198;-73
2021/10/11 02:02:27;;;;;;;7.97;3.40;;;;;;;;;;5150271;27;20026;-73
2021/10/11 02:04:53;;;;;;;9.63;3.05;;;;;;;;;;5150350;27;20022;-73
2021/10/11 02:07:19;;;;;;;6.97;3.72;;;;;;;;;;5148332;27;20359;-73
2021/10/11 02:09:45;;;;;;;8.35;2.92;;;;;;;;;;5150399;27;20407;-73
2021/10/11 02:12:12;;;;;;;8.25;3.13;;;;;;;;;;5150586;27;20025;-73
2021/10/11 02:14:38;;;;;;;7.95;3.25;;;;;;;;;;5150264;27;20014;-73
2021/10/11 02:17:04;;;;;;;8.95;3.40;;;;;;;;;;5149800;27;20046;-73
2021/10/11 02:19:30;;;;;;;9.73;3.55;;;;;;;;;;5148526;27;20083;-73
2021/10/11 02:21:56;;;;;;;5.93;2.63;;;;;;;;;;5150135;27;20023;-73
2021/10/11 02:24:22;;;;;;;13.43;3.78;;;;;;;;;;5149847;27;20023;-73
2021/10/11 02:26:48;;;;;;;6.68;3.22;;;;;;;;;;5148649;27;20027;-73
2021/10/11 02:29:15;;;;;;;5.20;2.70;;;;;;;;;;5148411;27;20033;-73
2021/10/11 02:31:41;;;;;;;5.78;3.83;;;;;;;;;;5149679;27;20015;-73
2021/10/11 02:34:07;;;;;;;4.97;2.92;;;;;;;;;;5150032;27;20103;-73
2021/10/11 02:36:33;;;;;;;7.63;3.30;;;;;;;;;;5149754;27;20026;-72
2021/10/11 02:38:59;;;;;;;6.35;3.45;;;;;;;;;;5129729;27;20042;-73
2021/10/11 02:41:26;;;;;;;7.63;2.92;;;;;;;;;;5128977;27;20094;-73
2021/10/11 02:43:52;;;;;;;5.15;3.10;;;;;;;;;;5128982;27;20027;-73
2021/10/11 02:46:18;;;;;;;7.82;3.35;;;;;;;;;;5128662;27;20352;-73
2021/10/11 02:48:44;;;;;;;10.05;3.67;;;;;;;;;;5127220;27;20391;-73
2021/10/11 02:51:10;;;;;;;8.75;3.00;;;;;;;;;;5125831;27;20019;-73
2021/10/11 02:53:36;;;;;;;5.43;2.85;;;;;;;;;;5128455;27;20038;-73
2021/10/11 02:56:03;;;;;;;5.43;2.95;;;;;;;;;;5128599;27;20027;-73
2021/10/11 02:58:29;;;;;;;6.35;3.10;;;;;;;;;;5128437;27;20055;-73
2021/10/11 03:00:55;;;;;;;5.10;3.03;;;;;;;;;;5127305;27;20031;-73
2021/10/11 03:03:21;;;;;;;5.90;3.05;;;;;;;;;;5126688;27;20027;-73
2021/10/11 03:05:47;;;;;;;6.82;3.30;;;;;;;;;;5125572;27;20042;-73
2021/10/11 03:08:13;;;;;;;8.05;3.10;;;;;;;;;;5125495;27;20091;-73
2021/10/11 03:10:39;;;;;;;11.05;3.42;;;;;;;;;;5125860;27;20050;-73
2021/10/11 03:13:06;;;;;;;5.93;2.83;;;;;;;;;;5124192;27;20475;-73
2021/10/11 03:15:32;;;;;;;7.05;2.80;;;;;;;;;;5124442;27;20427;-73
2021/10/11 03:17:58;;;;;;;13.48;3.60;;;;;;;;;;5125476;27;20412;-73
2021/10/11 03:20:24;;;;;;;5.38;2.70;;;;;;;;;;5125196;27;20463;-73
2021/10/11 03:22:50;;;;;;;5.18;2.47;;;;;;;;;;5125704;27;20187;-73
2021/10/11 03:25:16;;;;;;;9.55;3.60;;;;;;;;;;5124156;27;20149;-73
2021/10/11 03:27:42;;;;;;;5.35;2.33;;;;;;;;;;5125704;27;20034;-73
2021/10/11 03:30:09;;;;;;;5.00;2.60;;;;;;;;;;5125739;27;20019;-73
2021/10/11 03:32:35;;;;;;;7.53;2.88;;;;;;;;;;5123391;27;20642;-73
2021/10/11 03:35:01;;;;;;;9.30;3.25;;;;;;;;;;5125359;27;20027;-73
2021/10/11 03:37:27;;;;;;;9.20;2.63;;;;;;;;;;5125139;27;20019;-72
2021/10/11 03:39:53;;;;;;;7.53;2.08;;;;;;;;;;5125457;27;20034;-73
2021/10/11 03:42:19;;;;;;;7.15;2.20;;;;;;;;;;5125243;27;20051;-72
2021/10/11 03:44:46;;;;;;;7.20;2.42;;;;;;;;;;5125467;27;20098;-73
2021/10/11 03:47:12;;;;;;;6.35;2.80;;;;;;;;;;5123540;27;20123;-73
2021/10/11 03:49:38;;;;;;;3.63;2.10;;;;;;;;;;5125074;27;20031;-73
2021/10/11 03:52:04;;;;;;;4.13;2.08;;;;;;;;;;5125041;27;20032;-73
2021/10/11 03:54:30;;;;;;;5.22;2.00;;;;;;;;;;5123230;28;20030;-73
2021/10/11 03:56:56;;;;;;;6.97;2.47;;;;;;;;;;5124833;28;20039;-73
2021/10/11 03:59:24;;;;;;;2.83;1.98;;;;;;;;;;5124837;28;20078;-73
2021/10/11 04:01:50;;;;;;;6.10;2.35;;;;;;;;;;5125459;28;20023;-73
2021/10/11 04:04:17;;;;;;;5.65;2.40;;;;;;;;;;5124891;28;20263;-73
2021/10/11 04:06:43;;;;;;;10.23;3.22;;;;;;;;;;5123427;27;20023;-72
2021/10/11 04:09:09;;;;;;;3.63;2.50;;;;;;;;;;5124987;27;20122;-73
2021/10/11 04:11:36;;;;;;;8.00;2.78;;;;;;;;;;5125130;28;20028;-73
2021/10/11 04:14:02;;;;;;;5.90;2.60;;;;;;;;;;5124706;28;20489;-73
2021/10/11 04:16:28;;;;;;;5.65;2.85;;;;;;;;;;5123411;28;20423;-73
2021/10/11 04:18:54;;;;;;;6.00;2.40;;;;;;;;;;5124689;28;20019;-72
2021/10/11 04:21:20;;;;;;;6.18;2.50;;;;;;;;;;5125202;28;20031;-73
2021/10/11 04:23:46;;;;;;;7.03;2.78;;;;;;;;;;5124714;28;20550;-73
2021/10/11 04:26:13;;;;;;;9.90;2.70;;;;;;;;;;5123155;28;20350;-73
2021/10/11 04:28:39;;;;;;;5.35;2.58;;;;;;;;;;5124570;28;20028;-73
2021/10/11 04:31:06;;;;;;;4.90;2.67;;;;;;;;;;5124346;28;20494;-73
2021/10/11 04:33:32;;;;;;;7.70;2.75;;;;;;;;;;5125113;27;20042;-72
2021/10/11 04:35:59;;;;;;;9.27;3.30;;;;;;;;;;5124826;28;20060;-73
2021/10/11 04:38:25;;;;;;;5.53;2.65;;;;;;;;;;5122857;27;20534;-72
2021/10/11 04:40:51;;;;;;;5.82;2.50;;;;;;;;;;5124515;28;20320;-72
2021/10/11 04:43:17;;;;;;;8.50;2.80;;;;;;;;;;5124795;28;20085;-73
2021/10/11 04:45:43;;;;;;;7.95;3.25;;;;;;;;;;5124766;28;20038;-73
2021/10/11 04:48:11;;;;;;;7.75;3.10;;;;;;;;;;5122928;28;20035;-73
2021/10/11 04:50:37;;;;;;;5.82;2.72;;;;;;;;;;5126675;27;20386;-73
2021/10/11 04:53:04;;;;;;;8.35;3.17;;;;;;;;;;5126998;27;20055;-73
2021/10/11 04:55:31;;;;;;;5.97;3.33;;;;;;;;;;5128128;27;20038;-73
2021/10/11 04:57:58;;;;;;;12.75;3.42;;;;;;;;;;5128295;27;20939;-73
2021/10/11 05:00:24;;;;;;;8.00;3.17;;;;;;;;;;5126390;27;20038;-73
2021/10/11 05:02:51;;;;;;;8.38;3.15;;;;;;;;;;5128374;27;20061;-73
2021/10/11 05:05:17;;;;;;;4.85;2.40;;;;;;;;;;5128230;27;20023;-73
2021/10/11 05:07:43;;;;;;;6.18;2.85;;;;;;;;;;5127939;27;20037;-73
2021/10/11 05:10:09;;;;;;;3.90;2.70;;;;;;;;;;5126659;27;20398;-73
2021/10/11 05:12:35;;;;;;;5.07;2.42;;;;;;;;;;5126685;27;20047;-73
2021/10/11 05:15:02;;;;;;;6.18;2.85;;;;;;;;;;5128853;27;20027;-73
2021/10/11 05:17:28;;;;;;;9.38;2.80;;;;;;;;;;5127768;27;20992;-72
2021/10/11 05:19:54;;;;;;;8.93;2.63;;;;;;;;;;5127950;27;20018;-73
2021/10/11 05:22:20;;;;;;;5.38;2.22;;;;;;;;;;5126165;27;20023;-73
2021/10/11 05:24:46;;;;;;;5.75;2.40;;;;;;;;;;5127993;27;20020;-73
2021/10/11 05:27:13;;;;;;;8.95;3.00;;;;;;;;;;5125797;27;20043;-72
2021/10/11 05:29:39;;;;;;;6.05;2.50;;;;;;;;;;5128263;27;20023;-73
2021/10/11 05:32:06;;;;;;;7.38;3.00;;;;;;;;;;5127996;27;20416;-72
2021/10/11 05:34:32;;;;;;;7.07;2.80;;;;;;;;;;5125935;27;20489;-72
2021/10/11 05:37:01;;;;;;;9.32;3.63;;;;;;;;;;5126748;27;20359;-73
2021/10/11 05:39:27;;;;;;;8.38;2.80;;;;;;;;;;5127291;27;20051;-72
2021/10/11 05:41:53;;;;;;;8.43;2.60;;;;;;;;;;5127795;27;20020;-73
2021/10/11 05:44:20;;;;;;;10.00;2.50;;;;;;;;;;5127511;27;20047;-73
2021/10/11 05:46:47;;;;;;;7.18;2.67;;;;;;;;;;5125790;27;20058;-73
2021/10/11 05:49:14;;;;;;;8.32;2.83;;;;;;;;;;5126025;27;20038;-73
2021/10/11 05:51:40;;;;;;;8.27;2.72;;;;;;;;;;5126993;27;20020;-73
2021/10/11 05:54:06;;;;;;;7.95;2.92;;;;;;;;;;5125884;27;20023;-73
2021/10/11 05:56:32;;;;;;;7.65;2.78;;;;;;;;;;5126987;27;20047;-73
2021/10/11 05:58:58;;;;;;;6.97;2.60;;;;;;;;;;5126988;27;20023;-73
2021/10/11 06:01:25;;;;;;;7.82;3.03;;;;;;;;;;5126758;27;20023;-73
2021/10/11 06:03:51;;;;;;;6.18;2.80;;;;;;;;;;5125644;27;20021;-73
2021/10/11 06:06:17;;;;;;;7.63;3.20;;;;;;;;;;5127161;27;20075;-73
2021/10/11 06:08:43;;;;;;;9.38;2.38;;;;;;;;;;5126553;27;20047;-73
2021/10/11 06:11:09;;;;;;;5.78;2.50;;;;;;;;;;5127219;27;20056;-73
2021/10/11 06:13:35;;;;;;;5.20;2.42;;;;;;;;;;5127252;27;20027;-72
2021/10/11 06:16:01;;;;;;;11.25;3.20;;;;;;;;;;5125196;27;20056;-73
2021/10/11 06:18:28;;;;;;;6.65;3.20;;;;;;;;;;5126582;27;20080;-72
2021/10/11 06:20:54;;;;;;;9.55;3.05;;;;;;;;;;5127033;27;20027;-72
2021/10/11 06:23:20;;;;;;;15.00;3.38;;;;;;;;;;5127139;27;20029;-73
2021/10/11 06:25:46;;;;;;;8.48;2.60;;;;;;;;;;5126634;27;20027;-73
2021/10/11 06:28:15;;;;;;;9.55;3.08;;;;;;;;;;5125048;27;20307;-73
2021/10/11 06:30:45;;;;;;;8.65;3.33;;;;;;;;;;5126916;27;20072;-72
2021/10/11 06:33:11;;;;;;;10.20;3.55;;;;;;;;;;5126467;27;20056;-73
2021/10/11 06:35:37;;;;;;;9.27;3.42;;;;;;;;;;5126589;27;20450;-72
2021/10/11 06:38:03;;;;;;;6.07;2.70;;;;;;;;;;5124423;27;20479;-73
2021/10/11 06:40:29;;;;;;;10.55;2.88;;;;;;;;;;5126448;27;20104;-72
2021/10/11 06:42:55;;;;;;;6.28;2.67;;;;;;;;;;5125939;27;20031;-73
2021/10/11 06:45:22;;;;;;;11.88;3.60;;;;;;;;;;5126456;27;20019;-73
2021/10/11 06:47:48;;;;;;;8.38;2.90;;;;;;;;;;5125999;27;20042;-73
2021/10/11 06:50:14;;;;;;;8.43;2.55;;;;;;;;;;5124256;27;20020;-73
2021/10/11 06:52:40;;;;;;;7.95;2.70;;;;;;;;;;5126246;27;20038;-73
2021/10/11 06:55:07;;;;;;;6.78;2.63;;;;;;;;;;5125734;27;20023;-73
2021/10/11 06:57:33;;;;;;;5.90;2.63;;;;;;;;;;5123780;27;20444;-73
2021/10/11 06:59:59;;;;;;;8.50;2.60;;;;;;;;;;5125898;27;20023;-73
2021/10/11 07:02:26;;;;;;;8.48;2.80;;;;;;;;;;5125653;27;20206;-73
2021/10/11 07:04:57;;;;;;;6.25;2.22;;;;;;;;;;5124155;27;20047;-73
2021/10/11 07:07:29;;;;;;;8.50;2.47;;;;;;;;;;5125255;27;20387;-73
2021/10/11 07:09:55;;;;;;;3.60;2.03;;;;;;;;;;5125392;27;20055;-73
2021/10/11 07:12:21;;;;;;;6.05;2.38;;;;;;;;;;5125228;27;20211;-73
2021/10/11 07:14:49;;;;;;;8.68;2.90;;;;;;;;;;5125841;27;20023;-73
2021/10/11 07:17:15;;;;;;;14.50;3.92;;;;;;;;;;5125627;27;20029;-73
2021/10/11 07:19:45;;;;;;;5.43;2.60;;;;;;;;;;5124105;27;20117;-73
2021/10/11 07:22:13;;;;;;;8.18;3.08;;;;;;;;;;5125443;27;20371;-73
2021/10/11 07:24:39;;;;;;;9.57;2.50;;;;;;;;;;5125764;27;20300;-73
2021/10/11 07:27:05;;;;;;;5.93;2.35;;;;;;;;;;5125111;27;20019;-73
2021/10/11 07:29:31;;;;;;;10.25;2.72;;;;;;;;;;5125962;27;20564;-73
2021/10/11 07:31:57;;;;;;;6.57;2.38;;;;;;;;;;5123840;27;20183;-73
2021/10/11 07:34:25;;;;;;;5.72;2.25;;;;;;;;;;5125560;27;20045;-72
2021/10/11 07:36:51;;;;;;;5.65;2.47;;;;;;;;;;5125202;27;20039;-72
2021/10/11 07:39:17;;;;;;;7.78;2.75;;;;;;;;;;5125343;27;20048;-72
2021/10/11 07:41:43;;;;;;;5.15;2.00;;;;;;;;;;5125484;27;20205;-73
2021/10/11 07:44:10;;;;;;;5.55;2.25;;;;;;;;;;5125403;27;20023;-73
2021/10/11 07:46:37;;;;;;;6.95;2.70;;;;;;;;;;5132330;27;20122;-73
2021/10/11 07:49:03;;;;;;;7.07;2.30;;;;;;;;;;5144770;27;20275;-72
2021/10/11 07:51:30;;;;;;;6.43;2.22;;;;;;;;;;5145340;27;20023;-73
2021/10/11 07:53:56;;;;;;;6.30;2.70;;;;;;;;;;5145478;27;20365;-73
2021/10/11 07:56:22;;;;;;;7.20;2.22;;;;;;;;;;5143301;27;20015;-73
2021/10/11 07:58:48;;;;;;;6.38;2.22;;;;;;;;;;5145098;27;20500;-73
2021/10/11 08:01:14;;;;;;;5.88;2.00;;;;;;;;;;5145391;27;20018;-73
2021/10/11 08:03:40;;;;;;;5.70;2.40;;;;;;;;;;5139321;27;20090;-73
2021/10/11 08:06:07;;;;;;;6.72;2.50;;;;;;;;;;5124187;27;20027;-73
2021/10/11 08:08:34;;;;;;;9.68;2.47;;;;;;;;;;5122886;27;20502;-73
2021/10/11 08:11:01;;;;;;;8.65;2.20;;;;;;;;;;5124079;27;20064;-72
2021/10/11 08:13:27;;;;;;;7.00;2.42;;;;;;;;;;5124064;27;20479;-73
2021/10/11 08:15:54;;;;;;;6.38;2.58;;;;;;;;;;5124038;27;20019;-73
2021/10/11 08:18:21;;;;;;;5.70;2.60;;;;;;;;;;5124657;27;20023;-73
2021/10/11 08:20:47;;;;;;;4.43;2.42;;;;;;;;;;5124222;27;20027;-72
2021/10/11 08:23:13;;;;;;;5.50;2.22;;;;;;;;;;5122461;27;20471;-72
2021/10/11 08:25:40;;;;;;;7.28;2.85;;;;;;;;;;5128563;27;20065;-73
2021/10/11 08:28:06;;;;;;;3.92;2.45;;;;;;;;;;5128880;27;20034;-72
2021/10/11 08:30:32;;;;;;;8.23;2.40;;;;;;;;;;5128206;27;20048;-73
2021/10/11 08:32:59;;;;;;;9.70;3.25;;;;;;;;;;5128059;27;20030;-73
2021/10/11 08:35:25;;;;;;;7.20;3.00;;;;;;;;;;5131681;27;20038;-72
2021/10/11 08:37:51;;;;;;;5.40;2.13;;;;;;;;;;5148843;27;20047;-73
2021/10/11 08:40:21;;;;;;;6.53;2.50;;;;;;;;;;5149093;27;20022;-72
2021/10/11 08:42:49;;;;;;;3.47;2.05;;;;;;;;;;5148643;27;20486;-73
2021/10/11 08:45:15;;;;;;;5.90;2.15;;;;;;;;;;5138665;27;20091;-72
2021/10/11 08:47:41;;;;;;;5.05;2.35;;;;;;;;;;5135407;27;20030;-73
2021/10/11 08:50:11;;;;;;;2.88;2.03;;;;;;;;;;5148284;27;20151;-73
2021/10/11 08:52:37;;;;;;;8.93;2.30;;;;;;;;;;5129843;27;20033;-73
2021/10/11 08:55:03;;;;;;;6.03;2.03;;;;;;;;;;5143214;27;20027;-73
2021/10/11 08:57:31;;;;;;;7.30;2.45;;;;;;;;;;5138543;27;20118;-73
2021/10/11 09:00:10;;;;;;;4.53;2.30;;;;;;;;;;5127279;27;20110;-73
2021/10/11 09:02:36;;;;;;;7.10;2.28;;;;;;;;;;5130777;27;20521;-73
2021/10/11 09:05:03;;;;;;;5.45;2.58;;;;;;;;;;5125922;27;20047;-73
2021/10/11 09:07:30;;;;;;;4.63;2.38;;;;;;;;;;5135775;27;20129;-73
2021/10/11 09:09:57;;;;;;;3.50;1.92;;;;;;;;;;5132528;27;20030;-72
2021/10/11 09:12:24;;;;;;;4.57;2.03;;;;;;;;;;5144508;27;20033;-73
2021/10/11 09:15:06;;;;;;;4.75;2.42;;;;;;;;;;5147524;27;20023;-72
2021/10/11 09:17:37;;;;;;;5.20;1.98;;;;;;;;;;5148639;27;20030;-73
2021/10/11 09:20:13;;;;;;;4.00;2.00;;;;;;;;;;5147380;27;20046;-73
2021/10/11 09:22:40;;;;;;;4.05;1.88;;;;;;;;;;5148254;27;20026;-73
2021/10/11 09:25:07;;;;;;;3.30;1.77;;;;;;;;;;5148411;27;20027;-72
2021/10/11 09:27:46;;;;;;;5.25;2.20;;;;;;;;;;5148467;27;20087;-73
2021/10/11 09:30:13;;;;;;;5.10;2.22;;;;;;;;;;5147958;27;20015;-73
2021/10/11 09:32:40;;;;;;;4.50;1.80;;;;;;;;;;5148468;27;20025;-73
2021/10/11 09:35:10;;;;;;;6.07;2.33;;;;;;;;;;5147931;27;20026;-73
2021/10/11 09:37:37;;;;;;;5.07;2.00;;;;;;;;;;5147928;27;20023;-72
2021/10/11 09:40:03;;;;;;;6.25;1.95;;;;;;;;;;5148529;27;20390;-72
2021/10/11 09:42:30;;;;;;;4.20;2.10;;;;;;;;;;5145531;27;20390;-72
2021/10/11 09:44:57;;;;;;;3.42;1.80;;;;;;;;;;5146479;27;20029;-73
2021/10/11 09:47:30;;;;;;;5.20;1.90;;;;;;;;;;5146262;27;20041;-73
2021/10/11 09:49:57;;;;;;;4.90;2.20;;;;;;;;;;5147573;27;20046;-73
2021/10/11 09:52:24;;;;;;;5.20;2.05;;;;;;;;;;5145635;27;20019;-73
2021/10/11 09:54:50;;;;;;;4.10;2.15;;;;;;;;;;5147390;27;20121;-73
2021/10/11 09:57:17;;;;;;;5.50;2.40;;;;;;;;;;5146930;27;20058;-73
2021/10/11 09:59:46;;;;;;;4.53;2.15;;;;;;;;;;5145966;27;20496;-73
2021/10/11 10:02:13;;;;;;;6.57;1.98;;;;;;;;;;5147039;27;20474;-73
2021/10/11 10:04:41;;;;;;;4.25;1.98;;;;;;;;;;5145387;27;20029;-73
2021/10/11 10:07:08;;;;;;;4.75;2.38;;;;;;;;;;5147102;27;20058;-73
2021/10/11 10:09:36;;;;;;;6.70;2.65;;;;;;;;;;5147360;27;20030;-73
2021/10/11 10:12:06;;;;;;;8.32;2.38;;;;;;;;;;5145204;27;20091;-73
2021/10/11 10:14:34;;;;;;;5.03;1.90;;;;;;;;;;5146774;27;20038;-73
2021/10/11 10:17:00;;;;;;;5.03;2.13;;;;;;;;;;5146567;27;20022;-72
2021/10/11 10:19:36;;;;;;;9.35;2.20;;;;;;;;;;5147038;27;20088;-73
2021/10/11 10:22:22;;;;;;;5.85;2.53;;;;;;;;;;5146735;27;20097;-73
2021/10/11 10:24:48;;;;;;;3.63;2.00;;;;;;;;;;5144403;27;20019;-73
2021/10/11 10:27:15;;;;;;;7.28;2.72;;;;;;;;;;5144949;27;20019;-72
2021/10/11 10:29:46;;;;;;;3.90;2.10;;;;;;;;;;5146822;27;20030;-73
2021/10/11 10:32:13;;;;;;;5.40;2.33;;;;;;;;;;5147367;27;20105;-73
2021/10/11 10:34:39;;;;;;;7.07;2.33;;;;;;;;;;5147448;27;20110;-72
2021/10/11 10:37:09;;;;;;;5.72;2.40;;;;;;;;;;5147031;27;20027;-73
2021/10/11 10:39:38;;;;;;;9.93;3.00;;;;;;;;;;5145796;27;20022;-72
2021/10/11 10:42:04;;;;;;;4.80;2.20;;;;;;;;;;5147056;27;20604;-73
2021/10/11 10:44:30;;;;;;;6.68;2.70;;;;;;;;;;5146755;27;20030;-72
2021/10/11 10:47:03;;;;;;;7.95;2.50;;;;;;;;;;5145576;27;20022;-73
2021/10/11 10:49:33;;;;;;;7.28;2.22;;;;;;;;;;5146168;27;20019;-73
2021/10/11 10:52:00;;;;;;;5.30;2.35;;;;;;;;;;5144717;27;20014;-73
2021/10/11 10:54:34;;;;;;;4.13;2.05;;;;;;;;;;5146990;27;20406;-73
2021/10/11 10:57:00;;;;;;;4.43;2.22;;;;;;;;;;5146799;27;20484;-73
2021/10/11 10:59:26;;;;;;;4.78;2.10;;;;;;;;;;5146649;27;20058;-72
2021/10/11 11:02:11;;;;;;;3.60;1.90;;;;;;;;;;5145053;27;20061;-72
2021/10/11 11:04:38;;;;;;;3.65;2.20;;;;;;;;;;5146959;27;20019;-73
2021/10/11 11:07:11;;;;;;;5.80;2.40;;;;;;;;;;5146569;27;20485;-73
2021/10/11 11:09:38;;;;;;;7.22;3.05;;;;;;;;;;5146978;27;20209;-72
2021/10/11 11:12:04;;;;;;;4.40;2.10;;;;;;;;;;5146342;27;20019;-72
2021/10/11 11:14:30;;;;;;;5.47;2.33;;;;;;;;;;5144732;27;20023;-73
2021/10/11 11:16:57;;;;;;;8.98;2.72;;;;;;;;;;5146483;27;20014;-73
2021/10/11 11:19:23;;;;;;;5.82;2.92;;;;;;;;;;5146726;27;20424;-72
2021/10/11 11:21:56;;;;;;;5.00;2.17;;;;;;;;;;5146215;27;20470;-73
2021/10/11 11:24:22;;;;;;;5.47;2.38;;;;;;;;;;5146204;27;20494;-73
2021/10/11 11:26:48;;;;;;;7.85;2.83;;;;;;;;;;5144700;27;20027;-73
2021/10/11 11:29:15;;;;;;;7.30;2.55;;;;;;;;;;5146581;27;20033;-73
2021/10/11 11:31:47;;;;;;;5.25;2.45;;;;;;;;;;5146524;27;20509;-72
2021/10/11 11:34:13;;;;;;;6.82;2.30;;;;;;;;;;5145199;27;20315;-72
2021/10/11 11:36:49;;;;;;;6.75;2.92;;;;;;;;;;5146300;27;20027;-72
2021/10/11 11:39:15;;;;;;;5.68;2.80;;;;;;;;;;5145453;27;20029;-72
2021/10/11 11:41:49;;;;;;;4.47;2.83;;;;;;;;;;5146438;27;20033;-72
2021/10/11 11:44:22;;;;;;;7.07;3.03;;;;;;;;;;5144675;27;20060;-73
2021/10/11 11:46:58;;;;;;;3.97;2.60;;;;;;;;;;5145957;27;20454;-72
2021/10/11 11:49:25;;;;;;;7.78;2.20;;;;;;;;;;5146308;27;20075;-72
2021/10/11 11:51:51;;;;;;;9.90;2.70;;;;;;;;;;5145626;27;20398;-72
2021/10/11 11:54:17;;;;;;;6.22;2.83;;;;;;;;;;5144636;27;20378;-72
2021/10/11 11:56:43;;;;;;;5.97;2.63;;;;;;;;;;5144530;27;20023;-73
2021/10/11 11:59:09;;;;;;;5.50;2.30;;;;;;;;;;5145036;27;20026;-73
2021/10/11 12:01:36;;;;;;;6.15;2.83;;;;;;;;;;5145543;27;20023;-73
2021/10/11 12:04:03;;;;;;;7.82;2.88;;;;;;;;;;5144450;27;20025;-73
2021/10/11 12:06:30;;;;;;;6.80;2.70;;;;;;;;;;5145732;27;20364;-72
2021/10/11 12:08:57;;;;;;;6.72;2.83;;;;;;;;;;5144089;27;20031;-72
2021/10/11 12:11:23;;;;;;;5.50;2.75;;;;;;;;;;5145817;27;20598;-72
2021/10/11 12:13:49;;;;;;;4.88;2.72;;;;;;;;;;5145852;27;20031;-72
2021/10/11 12:16:17;;;;;;;8.10;2.83;;;;;;;;;;5145662;27;20097;-73
2021/10/11 12:18:44;;;;;;;7.70;2.72;;;;;;;;;;5145873;27;20095;-73
2021/10/11 12:21:23;;;;;;;4.90;2.65;;;;;;;;;;5144334;27;20033;-72
2021/10/11 12:23:50;;;;;;;5.45;2.60;;;;;;;;;;5145782;27;20025;-72
2021/10/11 12:26:16;;;;;;;6.40;2.65;;;;;;;;;;5145173;27;20428;-72
2021/10/11 12:29:09;;;;;;;4.55;2.85;;;;;;;;;;5145819;27;20084;-73
2021/10/11 12:31:39;;;;;;;6.10;2.80;;;;;;;;;;5143064;27;20039;-73
2021/10/11 12:34:14;;;;;;;4.85;2.67;;;;;;;;;;5143670;27;20033;-73
2021/10/11 12:36:48;;;;;;;5.32;2.50;;;;;;;;;;5145935;27;20463;-72
2021/10/11 12:39:15;;;;;;;3.83;2.70;;;;;;;;;;5146276;27;20050;-72
2021/10/11 12:41:48;;;;;;;5.20;2.45;;;;;;;;;;5146029;27;20038;-72
2021/10/11 12:44:18;;;;;;;5.07;2.80;;;;;;;;;;5146291;27;20814;-72
2021/10/11 12:46:45;;;;;;;7.25;2.75;;;;;;;;;;5145246;27;20034;-72
2021/10/11 12:49:11;;;;;;;6.05;3.40;;;;;;;;;;5143733;27;20049;-72
2021/10/11 12:51:38;;;;;;;6.60;2.65;;;;;;;;;;5145583;27;20027;-72
2021/10/11 12:54:12;;;;;;;5.20;2.80;;;;;;;;;;5145622;27;20086;-72
2021/10/11 12:56:50;;;;;;;3.15;2.35;;;;;;;;;;5145375;27;20023;-73
2021/10/11 12:59:17;;;;;;;4.25;2.35;;;;;;;;;;5143804;27;20257;-72
2021/10/11 13:01:43;;;;;;;6.78;2.75;;;;;;;;;;5143618;27;20561;-73
2021/10/11 13:04:09;;;;;;;4.70;2.47;;;;;;;;;;5145667;27;20040;-72
2021/10/11 13:06:35;;;;;;;4.97;2.53;;;;;;;;;;5145824;27;20023;-73
2021/10/11 13:09:02;;;;;;;3.95;2.70;;;;;;;;;;5145283;27;20035;-73
2021/10/11 13:11:29;;;;;;;5.97;2.60;;;;;;;;;;5146853;27;20023;-72
2021/10/11 13:13:56;;;;;;;5.10;2.65;;;;;;;;;;5147551;27;20029;-72
2021/10/11 13:16:23;;;;;;;5.45;2.50;;;;;;;;;;5148825;27;20137;-72
2021/10/11 13:18:49;;;;;;;9.98;3.17;;;;;;;;;;5149133;27;20033;-72
2021/10/11 13:21:15;;;;;;;11.18;3.90;;;;;;;;;;5147884;27;20034;-72
2021/10/11 13:23:43;;;;;;;10.07;3.67;;;;;;;;;;5146839;27;20047;-72
2021/10/11 13:26:12;;;;;;;10.55;3.28;;;;;;;;;;5148395;27;20027;-72
2021/10/11 13:29:05;;;;;;;17.30;3.88;;;;;;;;;;5148939;27;20035;-73
2021/10/11 14:26:26;;;;;;;9.82;3.38;;;;;;;;;;5129974;27;20038;-72
2021/10/11 14:29:00;;;;;;;11.73;3.53;;;;;;;;;;5124506;27;20031;-73
2021/10/11 14:31:31;;;;;;;9.35;2.97;;;;;;;;;;5141138;27;20105;-72
2021/10/11 15:57:39;;;;;;;7.78;3.20;;;;;;;;;;5146047;27;20033;-72
2021/10/11 16:01:43;;;;;;;;;;;;;;;;;;5145031;27;20031;-72
2021/10/11 16:04:09;;;;;;;5.80;3.00;;;;;;;;;;5145990;27;19941;-72
2021/10/11 16:06:36;;;;;;;7.68;3.13;;;;;;;;;;5146264;27;20019;-72
2021/10/11 16:09:02;;;;;;;11.05;3.50;;;;;;;;;;5145689;27;20086;-72
2021/10/11 16:11:29;;;;;;;5.63;2.60;;;;;;;;;;5145650;27;20029;-72
2021/10/11 16:13:55;;;;;;;6.45;3.22;;;;;;;;;;5144045;27;20427;-72
2021/10/11 16:16:22;;;;;;;7.75;2.83;;;;;;;;;;5145972;27;20022;-72
2021/10/11 16:18:48;;;;;;;5.25;3.03;;;;;;;;;;5145902;27;20058;-72
2021/10/11 16:21:15;;;;;;;5.63;2.90;;;;;;;;;;5145648;27;20471;-72
2021/10/11 16:23:42;;;;;;;5.20;3.08;;;;;;;;;;5144303;27;20023;-73
2021/10/11 16:26:10;;;;;;;7.97;2.95;;;;;;;;;;5146024;27;20365;-72
2021/10/11 16:28:37;;;;;;;7.25;3.30;;;;;;;;;;5146072;27;20343;-72
2021/10/11 16:31:06;;;;;;;7.45;3.25;;;;;;;;;;5145331;27;20467;-72
2021/10/11 16:33:32;;;;;;;5.15;2.83;;;;;;;;;;5146240;27;20626;-72
2021/10/11 16:35:58;;;;;;;7.00;3.05;;;;;;;;;;5142680;27;20023;-72
2021/10/11 16:38:24;;;;;;;7.05;3.15;;;;;;;;;;5137109;27;20027;-72
2021/10/11 16:40:51;;;;;;;6.70;3.22;;;;;;;;;;5122934;27;20031;-73
2021/10/11 16:43:17;;;;;;;6.97;3.55;;;;;;;;;;5124273;27;20091;-72
2021/10/11 16:45:44;;;;;;;5.18;2.85;;;;;;;;;;5125237;27;20019;-72
2021/10/11 16:48:10;;;;;;;5.47;2.90;;;;;;;;;;5134825;27;20489;-73
2021/10/11 16:50:36;;;;;;;4.03;2.33;;;;;;;;;;5140977;27;20035;-73
2021/10/11 16:53:03;;;;;;;3.47;2.33;;;;;;;;;;5138024;27;20015;-73
2021/10/11 16:55:29;;;;;;;4.50;2.55;;;;;;;;;;5149393;27;20323;-73
2021/10/11 16:57:55;;;;;;;6.55;3.05;;;;;;;;;;5149668;27;20575;-73
2021/10/11 17:00:22;;;;;;;6.00;2.90;;;;;;;;;;5149190;27;20015;-72
2021/10/11 17:02:48;;;;;;;5.30;2.80;;;;;;;;;;5146964;27;20230;-73